sensor_id;sensor_type;location;lat;lon;timestamp;P1;durP1;ratioP1;P2;durP2;ratioP2
17361;SDS011;8798;51.938;4.348;2023-11-21T00:01:06;12.13;;;2.83;;
17361;SDS011;8798;51.938;4.348;2023-11-21T00:03:56;7.27;;;2.73;;
17361;SDS011;8798;51.938;4.348;2023-11-21T00:06:36;8.77;;;3.03;;
17361;SDS011;8798;51.938;4.348;2023-11-21T00:09:04;4.10;;;2.80;;
17361;SDS011;8798;51.938;4.348;2023-11-21T00:11:41;6.73;;;2.50;;
17361;SDS011;8798;51.938;4.348;2023-11-21T00:14:22;6.77;;;2.73;;
17361;SDS011;8798;51.938;4.348;2023-11-21T00:16:56;9.63;;;2.50;;
17361;SDS011;8798;51.938;4.348;2023-11-21T00:19:26;10.37;;;2.50;;
17361;SDS011;8798;51.938;4.348;2023-11-21T00:22:06;7.30;;;2.30;;
17361;SDS011;8798;51.938;4.348;2023-11-21T00:24:38;5.53;;;2.40;;
17361;SDS011;8798;51.938;4.348;2023-11-21T00:27:14;8.27;;;2.67;;
17361;SDS011;8798;51.938;4.348;2023-11-21T00:29:53;6.80;;;2.30;;
17361;SDS011;8798;51.938;4.348;2023-11-21T00:32:36;7.00;;;2.70;;
17361;SDS011;8798;51.938;4.348;2023-11-21T00:35:07;10.90;;;2.53;;
17361;SDS011;8798;51.938;4.348;2023-11-21T00:37:39;9.53;;;2.73;;
17361;SDS011;8798;51.938;4.348;2023-11-21T00:40:16;10.13;;;2.83;;
17361;SDS011;8798;51.938;4.348;2023-11-21T00:42:58;8.87;;;2.80;;
17361;SDS011;8798;51.938;4.348;2023-11-21T00:45:39;10.20;;;3.10;;
17361;SDS011;8798;51.938;4.348;2023-11-21T00:48:26;7.53;;;3.00;;
17361;SDS011;8798;51.938;4.348;2023-11-21T00:51:02;7.70;;;2.30;;
17361;SDS011;8798;51.938;4.348;2023-11-21T00:53:36;4.80;;;2.40;;
17361;SDS011;8798;51.938;4.348;2023-11-21T00:56:13;8.13;;;2.47;;
17361;SDS011;8798;51.938;4.348;2023-11-21T00:58:57;8.17;;;2.30;;
17361;SDS011;8798;51.938;4.348;2023-11-21T01:01:48;8.63;;;2.43;;
17361;SDS011;8798;51.938;4.348;2023-11-21T01:04:36;7.33;;;2.60;;
17361;SDS011;8798;51.938;4.348;2023-11-21T01:07:20;7.07;;;2.43;;
17361;SDS011;8798;51.938;4.348;2023-11-21T01:10:11;4.70;;;2.47;;
17361;SDS011;8798;51.938;4.348;2023-11-21T01:12:57;6.07;;;2.17;;
17361;SDS011;8798;51.938;4.348;2023-11-21T01:15:49;8.20;;;2.60;;
17361;SDS011;8798;51.938;4.348;2023-11-21T01:18:36;5.67;;;2.27;;
17361;SDS011;8798;51.938;4.348;2023-11-21T01:21:26;8.03;;;2.60;;
17361;SDS011;8798;51.938;4.348;2023-11-21T01:24:06;7.00;;;2.53;;
17361;SDS011;8798;51.938;4.348;2023-11-21T01:29:46;5.70;;;2.40;;
17361;SDS011;8798;51.938;4.348;2023-11-21T01:32:16;6.23;;;2.30;;
17361;SDS011;8798;51.938;4.348;2023-11-21T01:34:56;5.77;;;2.53;;
17361;SDS011;8798;51.938;4.348;2023-11-21T01:37:36;5.30;;;2.73;;
17361;SDS011;8798;51.938;4.348;2023-11-21T01:40:16;7.87;;;2.90;;
17361;SDS011;8798;51.938;4.348;2023-11-21T01:42:58;7.00;;;2.50;;
17361;SDS011;8798;51.938;4.348;2023-11-21T01:45:47;6.03;;;2.23;;
17361;SDS011;8798;51.938;4.348;2023-11-21T01:48:37;8.20;;;2.53;;
17361;SDS011;8798;51.938;4.348;2023-11-21T01:51:28;7.67;;;2.60;;
17361;SDS011;8798;51.938;4.348;2023-11-21T01:54:25;5.57;;;2.00;;
17361;SDS011;8798;51.938;4.348;2023-11-21T01:57:04;8.20;;;2.40;;
17361;SDS011;8798;51.938;4.348;2023-11-21T01:59:35;8.10;;;2.50;;
17361;SDS011;8798;51.938;4.348;2023-11-21T02:02:06;6.20;;;2.40;;
17361;SDS011;8798;51.938;4.348;2023-11-21T02:04:37;6.30;;;2.33;;
17361;SDS011;8798;51.938;4.348;2023-11-21T02:07:08;6.07;;;2.00;;
17361;SDS011;8798;51.938;4.348;2023-11-21T02:09:57;5.77;;;2.20;;
17361;SDS011;8798;51.938;4.348;2023-11-21T02:12:36;8.97;;;2.50;;
17361;SDS011;8798;51.938;4.348;2023-11-21T02:15:06;6.37;;;2.33;;
17361;SDS011;8798;51.938;4.348;2023-11-21T02:17:50;4.10;;;2.40;;
17361;SDS011;8798;51.938;4.348;2023-11-21T02:20:36;5.67;;;1.93;;
17361;SDS011;8798;51.938;4.348;2023-11-21T02:23:17;6.80;;;2.00;;
17361;SDS011;8798;51.938;4.348;2023-11-21T02:25:57;5.90;;;2.17;;
17361;SDS011;8798;51.938;4.348;2023-11-21T02:28:55;5.17;;;2.13;;
17361;SDS011;8798;51.938;4.348;2023-11-21T02:31:46;4.37;;;1.97;;
17361;SDS011;8798;51.938;4.348;2023-11-21T02:34:20;6.00;;;2.20;;
17361;SDS011;8798;51.938;4.348;2023-11-21T02:37:18;5.47;;;2.10;;
17361;SDS011;8798;51.938;4.348;2023-11-21T02:39:57;4.93;;;2.00;;
17361;SDS011;8798;51.938;4.348;2023-11-21T02:42:42;5.53;;;2.73;;
17361;SDS011;8798;51.938;4.348;2023-11-21T02:45:27;4.80;;;2.60;;
17361;SDS011;8798;51.938;4.348;2023-11-21T02:48:16;5.70;;;2.30;;
17361;SDS011;8798;51.938;4.348;2023-11-21T02:50:54;4.73;;;2.20;;
17361;SDS011;8798;51.938;4.348;2023-11-21T02:53:37;4.40;;;2.10;;
17361;SDS011;8798;51.938;4.348;2023-11-21T02:56:19;7.13;;;2.83;;
17361;SDS011;8798;51.938;4.348;2023-11-21T02:58:59;5.00;;;2.23;;
17361;SDS011;8798;51.938;4.348;2023-11-21T03:01:50;5.13;;;2.20;;
17361;SDS011;8798;51.938;4.348;2023-11-21T03:04:41;4.23;;;2.40;;
17361;SDS011;8798;51.938;4.348;2023-11-21T03:07:37;6.47;;;2.80;;
17361;SDS011;8798;51.938;4.348;2023-11-21T03:10:17;8.67;;;2.90;;
17361;SDS011;8798;51.938;4.348;2023-11-21T03:13:06;8.07;;;2.87;;
17361;SDS011;8798;51.938;4.348;2023-11-21T03:16:00;5.30;;;3.00;;
17361;SDS011;8798;51.938;4.348;2023-11-21T03:18:39;4.83;;;2.40;;
17361;SDS011;8798;51.938;4.348;2023-11-21T03:21:46;4.70;;;2.57;;
17361;SDS011;8798;51.938;4.348;2023-11-21T03:24:26;6.73;;;2.50;;
17361;SDS011;8798;51.938;4.348;2023-11-21T03:27:08;4.37;;;2.50;;
17361;SDS011;8798;51.938;4.348;2023-11-21T03:29:49;6.47;;;2.53;;
17361;SDS011;8798;51.938;4.348;2023-11-21T03:32:27;5.30;;;2.43;;
17361;SDS011;8798;51.938;4.348;2023-11-21T03:35:07;4.53;;;2.30;;
17361;SDS011;8798;51.938;4.348;2023-11-21T03:37:44;5.13;;;2.43;;
17361;SDS011;8798;51.938;4.348;2023-11-21T03:40:30;3.00;;;2.13;;
17361;SDS011;8798;51.938;4.348;2023-11-21T03:43:20;5.07;;;2.60;;
17361;SDS011;8798;51.938;4.348;2023-11-21T03:49:10;4.93;;;2.53;;
17361;SDS011;8798;51.938;4.348;2023-11-21T03:52:07;9.40;;;2.73;;
17361;SDS011;8798;51.938;4.348;2023-11-21T03:54:50;6.63;;;2.50;;
17361;SDS011;8798;51.938;4.348;2023-11-21T03:57:39;4.07;;;2.53;;
17361;SDS011;8798;51.938;4.348;2023-11-21T04:00:18;4.67;;;2.40;;
17361;SDS011;8798;51.938;4.348;2023-11-21T04:02:59;4.20;;;2.07;;
17361;SDS011;8798;51.938;4.348;2023-11-21T04:05:45;3.93;;;2.30;;
17361;SDS011;8798;51.938;4.348;2023-11-21T04:08:28;6.70;;;2.57;;
17361;SDS011;8798;51.938;4.348;2023-11-21T04:11:17;3.57;;;2.30;;
17361;SDS011;8798;51.938;4.348;2023-11-21T04:14:17;4.00;;;2.33;;
17361;SDS011;8798;51.938;4.348;2023-11-21T04:16:56;3.57;;;2.50;;
17361;SDS011;8798;51.938;4.348;2023-11-21T04:19:36;6.53;;;3.17;;
17361;SDS011;8798;51.938;4.348;2023-11-21T04:22:09;3.87;;;2.57;;
17361;SDS011;8798;51.938;4.348;2023-11-21T04:24:50;6.10;;;2.60;;
17361;SDS011;8798;51.938;4.348;2023-11-21T04:27:48;4.53;;;2.50;;
17361;SDS011;8798;51.938;4.348;2023-11-21T04:30:29;7.13;;;2.63;;
17361;SDS011;8798;51.938;4.348;2023-11-21T04:33:17;8.13;;;2.57;;
17361;SDS011;8798;51.938;4.348;2023-11-21T04:36:01;4.17;;;2.30;;
17361;SDS011;8798;51.938;4.348;2023-11-21T04:38:56;4.87;;;2.30;;
17361;SDS011;8798;51.938;4.348;2023-11-21T04:41:38;3.83;;;2.30;;
17361;SDS011;8798;51.938;4.348;2023-11-21T04:47:01;3.87;;;2.40;;
17361;SDS011;8798;51.938;4.348;2023-11-21T04:49:47;4.33;;;2.77;;
17361;SDS011;8798;51.938;4.348;2023-11-21T04:52:31;3.40;;;2.23;;
17361;SDS011;8798;51.938;4.348;2023-11-21T04:55:27;6.20;;;1.87;;
17361;SDS011;8798;51.938;4.348;2023-11-21T04:58:18;7.67;;;2.10;;
17361;SDS011;8798;51.938;4.348;2023-11-21T05:01:00;4.13;;;2.20;;
17361;SDS011;8798;51.938;4.348;2023-11-21T05:03:57;5.97;;;2.53;;
17361;SDS011;8798;51.938;4.348;2023-11-21T05:06:38;5.97;;;2.53;;
17361;SDS011;8798;51.938;4.348;2023-11-21T05:09:28;5.00;;;2.60;;
17361;SDS011;8798;51.938;4.348;2023-11-21T05:12:07;5.57;;;2.87;;
17361;SDS011;8798;51.938;4.348;2023-11-21T05:14:54;5.20;;;2.90;;
17361;SDS011;8798;51.938;4.348;2023-11-21T05:17:34;5.40;;;2.67;;
17361;SDS011;8798;51.938;4.348;2023-11-21T05:20:09;5.03;;;3.07;;
17361;SDS011;8798;51.938;4.348;2023-11-21T05:25:42;5.47;;;2.73;;
17361;SDS011;8798;51.938;4.348;2023-11-21T05:28:28;5.43;;;2.60;;
17361;SDS011;8798;51.938;4.348;2023-11-21T05:31:08;4.40;;;2.40;;
17361;SDS011;8798;51.938;4.348;2023-11-21T05:34:04;5.93;;;2.60;;
17361;SDS011;8798;51.938;4.348;2023-11-21T05:36:48;5.27;;;2.50;;
17361;SDS011;8798;51.938;4.348;2023-11-21T05:39:18;5.67;;;2.57;;
17361;SDS011;8798;51.938;4.348;2023-11-21T05:41:59;6.90;;;2.60;;
17361;SDS011;8798;51.938;4.348;2023-11-21T05:44:35;3.90;;;2.27;;
17361;SDS011;8798;51.938;4.348;2023-11-21T05:47:21;5.03;;;2.67;;
17361;SDS011;8798;51.938;4.348;2023-11-21T05:50:13;4.73;;;2.70;;
17361;SDS011;8798;51.938;4.348;2023-11-21T05:52:57;4.53;;;2.80;;
17361;SDS011;8798;51.938;4.348;2023-11-21T05:55:50;3.13;;;2.33;;
17361;SDS011;8798;51.938;4.348;2023-11-21T05:58:37;3.90;;;2.20;;
17361;SDS011;8798;51.938;4.348;2023-11-21T06:01:12;4.17;;;2.70;;
17361;SDS011;8798;51.938;4.348;2023-11-21T06:03:59;5.90;;;2.60;;
17361;SDS011;8798;51.938;4.348;2023-11-21T06:06:42;4.53;;;2.50;;
17361;SDS011;8798;51.938;4.348;2023-11-21T06:09:19;3.27;;;2.20;;
17361;SDS011;8798;51.938;4.348;2023-11-21T06:11:58;3.70;;;2.50;;
17361;SDS011;8798;51.938;4.348;2023-11-21T06:14:32;3.17;;;1.87;;
17361;SDS011;8798;51.938;4.348;2023-11-21T06:17:21;3.03;;;1.87;;
17361;SDS011;8798;51.938;4.348;2023-11-21T06:20:07;4.40;;;2.20;;
17361;SDS011;8798;51.938;4.348;2023-11-21T06:22:49;4.10;;;2.20;;
17361;SDS011;8798;51.938;4.348;2023-11-21T06:25:44;5.20;;;2.20;;
17361;SDS011;8798;51.938;4.348;2023-11-21T06:28:16;2.77;;;1.90;;
17361;SDS011;8798;51.938;4.348;2023-11-21T06:30:59;3.27;;;2.00;;
17361;SDS011;8798;51.938;4.348;2023-11-21T06:34:01;2.90;;;1.67;;
17361;SDS011;8798;51.938;4.348;2023-11-21T06:36:50;3.30;;;1.67;;
17361;SDS011;8798;51.938;4.348;2023-11-21T06:39:35;3.07;;;1.80;;
17361;SDS011;8798;51.938;4.348;2023-11-21T06:42:18;4.40;;;2.43;;
17361;SDS011;8798;51.938;4.348;2023-11-21T06:44:51;3.90;;;2.00;;
17361;SDS011;8798;51.938;4.348;2023-11-21T06:50:09;2.93;;;1.80;;
17361;SDS011;8798;51.938;4.348;2023-11-21T06:52:56;4.47;;;1.73;;
17361;SDS011;8798;51.938;4.348;2023-11-21T06:55:40;2.97;;;1.90;;
17361;SDS011;8798;51.938;4.348;2023-11-21T06:58:21;3.30;;;1.80;;
17361;SDS011;8798;51.938;4.348;2023-11-21T07:01:05;5.33;;;2.37;;
17361;SDS011;8798;51.938;4.348;2023-11-21T07:03:48;3.33;;;2.10;;
17361;SDS011;8798;51.938;4.348;2023-11-21T07:06:29;2.67;;;1.87;;
17361;SDS011;8798;51.938;4.348;2023-11-21T07:09:07;4.20;;;1.93;;
17361;SDS011;8798;51.938;4.348;2023-11-21T07:11:47;3.50;;;1.80;;
17361;SDS011;8798;51.938;4.348;2023-11-21T07:14:19;4.83;;;1.83;;
17361;SDS011;8798;51.938;4.348;2023-11-21T07:16:58;4.43;;;1.60;;
17361;SDS011;8798;51.938;4.348;2023-11-21T07:19:34;3.80;;;1.83;;
17361;SDS011;8798;51.938;4.348;2023-11-21T07:22:18;4.43;;;1.50;;
17361;SDS011;8798;51.938;4.348;2023-11-21T07:25:08;4.17;;;1.50;;
17361;SDS011;8798;51.938;4.348;2023-11-21T07:27:45;2.97;;;1.63;;
17361;SDS011;8798;51.938;4.348;2023-11-21T07:30:36;3.40;;;1.70;;
17361;SDS011;8798;51.938;4.348;2023-11-21T07:33:30;7.00;;;1.50;;
17361;SDS011;8798;51.938;4.348;2023-11-21T07:36:50;3.67;;;1.50;;
17361;SDS011;8798;51.938;4.348;2023-11-21T07:39:30;6.10;;;1.80;;
17361;SDS011;8798;51.938;4.348;2023-11-21T07:42:20;5.87;;;1.70;;
17361;SDS011;8798;51.938;4.348;2023-11-21T07:44:58;5.33;;;1.40;;
17361;SDS011;8798;51.938;4.348;2023-11-21T07:47:45;5.73;;;1.63;;
17361;SDS011;8798;51.938;4.348;2023-11-21T07:50:37;7.30;;;1.60;;
17361;SDS011;8798;51.938;4.348;2023-11-21T07:53:07;8.27;;;2.00;;
17361;SDS011;8798;51.938;4.348;2023-11-21T07:55:48;5.70;;;1.77;;
17361;SDS011;8798;51.938;4.348;2023-11-21T07:58:24;6.97;;;2.13;;
17361;SDS011;8798;51.938;4.348;2023-11-21T08:01:07;4.20;;;1.97;;
17361;SDS011;8798;51.938;4.348;2023-11-21T08:03:49;4.33;;;1.60;;
17361;SDS011;8798;51.938;4.348;2023-11-21T08:06:33;7.13;;;1.87;;
17361;SDS011;8798;51.938;4.348;2023-11-21T08:09:14;5.77;;;2.50;;
17361;SDS011;8798;51.938;4.348;2023-11-21T08:11:56;9.37;;;2.00;;
17361;SDS011;8798;51.938;4.348;2023-11-21T08:14:31;3.03;;;1.17;;
17361;SDS011;8798;51.938;4.348;2023-11-21T08:17:07;5.70;;;1.63;;
17361;SDS011;8798;51.938;4.348;2023-11-21T08:19:43;7.10;;;1.67;;
17361;SDS011;8798;51.938;4.348;2023-11-21T08:22:27;7.37;;;1.70;;
17361;SDS011;8798;51.938;4.348;2023-11-21T08:25:07;4.67;;;1.53;;
17361;SDS011;8798;51.938;4.348;2023-11-21T08:27:45;4.00;;;1.40;;
17361;SDS011;8798;51.938;4.348;2023-11-21T08:30:19;4.80;;;1.40;;
17361;SDS011;8798;51.938;4.348;2023-11-21T08:33:05;11.63;;;1.60;;
17361;SDS011;8798;51.938;4.348;2023-11-21T08:35:38;4.43;;;1.17;;
17361;SDS011;8798;51.938;4.348;2023-11-21T08:38:11;7.63;;;1.63;;
17361;SDS011;8798;51.938;4.348;2023-11-21T08:40:49;9.30;;;2.00;;
17361;SDS011;8798;51.938;4.348;2023-11-21T08:43:29;8.53;;;2.10;;
17361;SDS011;8798;51.938;4.348;2023-11-21T08:46:10;5.60;;;1.50;;
17361;SDS011;8798;51.938;4.348;2023-11-21T08:48:51;3.13;;;1.40;;
17361;SDS011;8798;51.938;4.348;2023-11-21T08:51:38;7.97;;;1.97;;
17361;SDS011;8798;51.938;4.348;2023-11-21T08:54:15;8.30;;;2.03;;
17361;SDS011;8798;51.938;4.348;2023-11-21T08:56:57;7.00;;;2.10;;
17361;SDS011;8798;51.938;4.348;2023-11-21T08:59:29;6.03;;;1.57;;
17361;SDS011;8798;51.938;4.348;2023-11-21T09:02:19;4.77;;;1.60;;
17361;SDS011;8798;51.938;4.348;2023-11-21T09:04:57;3.93;;;1.60;;
17361;SDS011;8798;51.938;4.348;2023-11-21T09:07:31;5.40;;;1.30;;
17361;SDS011;8798;51.938;4.348;2023-11-21T09:10:11;7.87;;;2.37;;
17361;SDS011;8798;51.938;4.348;2023-11-21T09:12:48;5.30;;;1.83;;
17361;SDS011;8798;51.938;4.348;2023-11-21T09:15:29;6.37;;;1.63;;
17361;SDS011;8798;51.938;4.348;2023-11-21T09:18:07;6.50;;;1.80;;
17361;SDS011;8798;51.938;4.348;2023-11-21T09:20:41;3.67;;;1.33;;
17361;SDS011;8798;51.938;4.348;2023-11-21T09:23:17;2.90;;;1.37;;
17361;SDS011;8798;51.938;4.348;2023-11-21T09:25:53;6.97;;;1.77;;
17361;SDS011;8798;51.938;4.348;2023-11-21T09:28:33;2.97;;;1.57;;
17361;SDS011;8798;51.938;4.348;2023-11-21T09:31:17;3.97;;;1.63;;
17361;SDS011;8798;51.938;4.348;2023-11-21T09:33:54;3.07;;;1.43;;
17361;SDS011;8798;51.938;4.348;2023-11-21T09:36:29;7.83;;;1.80;;
17361;SDS011;8798;51.938;4.348;2023-11-21T09:39:07;3.43;;;1.60;;
17361;SDS011;8798;51.938;4.348;2023-11-21T09:41:40;4.30;;;2.10;;
17361;SDS011;8798;51.938;4.348;2023-11-21T09:44:30;3.40;;;2.10;;
17361;SDS011;8798;51.938;4.348;2023-11-21T09:47:19;4.33;;;1.90;;
17361;SDS011;8798;51.938;4.348;2023-11-21T09:50:00;2.20;;;1.47;;
17361;SDS011;8798;51.938;4.348;2023-11-21T09:52:47;3.23;;;1.90;;
17361;SDS011;8798;51.938;4.348;2023-11-21T09:55:34;4.83;;;2.10;;
17361;SDS011;8798;51.938;4.348;2023-11-21T09:58:14;3.60;;;1.67;;
17361;SDS011;8798;51.938;4.348;2023-11-21T10:00:58;3.70;;;1.90;;
17361;SDS011;8798;51.938;4.348;2023-11-21T10:03:41;3.23;;;2.03;;
17361;SDS011;8798;51.938;4.348;2023-11-21T10:06:21;5.43;;;2.40;;
17361;SDS011;8798;51.938;4.348;2023-11-21T10:09:02;2.97;;;1.77;;
17361;SDS011;8798;51.938;4.348;2023-11-21T10:12:13;5.10;;;2.30;;
17361;SDS011;8798;51.938;4.348;2023-11-21T10:14:56;3.13;;;2.20;;
17361;SDS011;8798;51.938;4.348;2023-11-21T10:17:31;4.13;;;2.40;;
17361;SDS011;8798;51.938;4.348;2023-11-21T10:20:17;4.27;;;2.57;;
17361;SDS011;8798;51.938;4.348;2023-11-21T10:22:51;4.23;;;2.53;;
17361;SDS011;8798;51.938;4.348;2023-11-21T10:25:24;3.10;;;2.10;;
17361;SDS011;8798;51.938;4.348;2023-11-21T10:28:11;3.60;;;2.43;;
17361;SDS011;8798;51.938;4.348;2023-11-21T10:30:47;4.23;;;2.47;;
17361;SDS011;8798;51.938;4.348;2023-11-21T10:33:17;4.67;;;2.40;;
17361;SDS011;8798;51.938;4.348;2023-11-21T10:35:58;3.73;;;2.40;;
17361;SDS011;8798;51.938;4.348;2023-11-21T10:38:35;4.60;;;2.40;;
17361;SDS011;8798;51.938;4.348;2023-11-21T10:41:25;4.77;;;2.70;;
17361;SDS011;8798;51.938;4.348;2023-11-21T10:44:05;4.37;;;2.30;;
17361;SDS011;8798;51.938;4.348;2023-11-21T10:46:40;4.07;;;2.13;;
17361;SDS011;8798;51.938;4.348;2023-11-21T10:49:11;2.97;;;1.90;;
17361;SDS011;8798;51.938;4.348;2023-11-21T10:51:45;2.37;;;1.73;;
17361;SDS011;8798;51.938;4.348;2023-11-21T10:54:17;1.90;;;1.27;;
17361;SDS011;8798;51.938;4.348;2023-11-21T10:56:48;2.77;;;1.43;;
17361;SDS011;8798;51.938;4.348;2023-11-21T10:59:25;1.73;;;1.40;;
17361;SDS011;8798;51.938;4.348;2023-11-21T11:02:00;2.13;;;1.50;;
17361;SDS011;8798;51.938;4.348;2023-11-21T11:04:43;3.07;;;1.33;;
17361;SDS011;8798;51.938;4.348;2023-11-21T11:07:13;2.70;;;1.60;;
17361;SDS011;8798;51.938;4.348;2023-11-21T11:09:45;3.07;;;1.53;;
17361;SDS011;8798;51.938;4.348;2023-11-21T11:12:16;2.83;;;1.60;;
17361;SDS011;8798;51.938;4.348;2023-11-21T11:14:53;4.00;;;2.00;;
17361;SDS011;8798;51.938;4.348;2023-11-21T11:17:23;3.63;;;2.13;;
17361;SDS011;8798;51.938;4.348;2023-11-21T11:19:55;4.17;;;2.13;;
17361;SDS011;8798;51.938;4.348;2023-11-21T11:22:29;3.37;;;1.90;;
17361;SDS011;8798;51.938;4.348;2023-11-21T11:25:21;3.50;;;1.80;;
17361;SDS011;8798;51.938;4.348;2023-11-21T11:28:03;4.73;;;1.80;;
17361;SDS011;8798;51.938;4.348;2023-11-21T11:30:39;3.27;;;2.20;;
17361;SDS011;8798;51.938;4.348;2023-11-21T11:33:21;3.23;;;1.83;;
17361;SDS011;8798;51.938;4.348;2023-11-21T11:36:06;5.13;;;2.23;;
17361;SDS011;8798;51.938;4.348;2023-11-21T11:38:45;4.90;;;2.63;;
17361;SDS011;8798;51.938;4.348;2023-11-21T11:41:25;3.47;;;1.93;;
17361;SDS011;8798;51.938;4.348;2023-11-21T11:43:56;3.80;;;2.37;;
17361;SDS011;8798;51.938;4.348;2023-11-21T11:49:23;4.60;;;2.70;;
17361;SDS011;8798;51.938;4.348;2023-11-21T11:55:05;6.20;;;3.03;;
17361;SDS011;8798;51.938;4.348;2023-11-21T11:57:46;6.30;;;3.40;;
17361;SDS011;8798;51.938;4.348;2023-11-21T12:00:20;5.77;;;3.50;;
17361;SDS011;8798;51.938;4.348;2023-11-21T12:03:14;6.40;;;3.20;;
17361;SDS011;8798;51.938;4.348;2023-11-21T12:05:46;5.73;;;3.70;;
17361;SDS011;8798;51.938;4.348;2023-11-21T12:08:23;6.10;;;3.50;;
17361;SDS011;8798;51.938;4.348;2023-11-21T12:11:04;6.73;;;4.00;;
17361;SDS011;8798;51.938;4.348;2023-11-21T12:13:36;6.30;;;4.03;;
17361;SDS011;8798;51.938;4.348;2023-11-21T12:16:05;6.03;;;3.53;;
17361;SDS011;8798;51.938;4.348;2023-11-21T12:18:37;6.57;;;3.80;;
17361;SDS011;8798;51.938;4.348;2023-11-21T12:21:08;7.13;;;3.87;;
17361;SDS011;8798;51.938;4.348;2023-11-21T12:23:41;6.00;;;3.80;;
17361;SDS011;8798;51.938;4.348;2023-11-21T12:26:15;8.23;;;3.90;;
17361;SDS011;8798;51.938;4.348;2023-11-21T12:28:46;6.67;;;3.90;;
17361;SDS011;8798;51.938;4.348;2023-11-21T12:31:33;11.70;;;3.90;;
17361;SDS011;8798;51.938;4.348;2023-11-21T12:34:03;5.37;;;3.10;;
17361;SDS011;8798;51.938;4.348;2023-11-21T12:36:34;8.97;;;3.80;;
17361;SDS011;8798;51.938;4.348;2023-11-21T12:39:05;5.33;;;3.40;;
17361;SDS011;8798;51.938;4.348;2023-11-21T12:41:38;5.17;;;3.33;;
17361;SDS011;8798;51.938;4.348;2023-11-21T12:44:09;12.40;;;3.30;;
17361;SDS011;8798;51.938;4.348;2023-11-21T12:47:01;7.87;;;4.10;;
17361;SDS011;8798;51.938;4.348;2023-11-21T12:49:35;5.67;;;3.20;;
17361;SDS011;8798;51.938;4.348;2023-11-21T12:52:06;14.77;;;4.17;;
17361;SDS011;8798;51.938;4.348;2023-11-21T12:54:41;9.70;;;3.93;;
17361;SDS011;8798;51.938;4.348;2023-11-21T12:57:21;141.00;;;15.20;;
17361;SDS011;8798;51.938;4.348;2023-11-21T13:00:10;63.17;;;9.50;;
17361;SDS011;8798;51.938;4.348;2023-11-21T13:02:59;8.60;;;3.43;;
17361;SDS011;8798;51.938;4.348;2023-11-21T13:05:40;5.87;;;3.60;;
17361;SDS011;8798;51.938;4.348;2023-11-21T13:08:27;4.93;;;3.23;;
17361;SDS011;8798;51.938;4.348;2023-11-21T13:10:58;6.47;;;3.30;;
17361;SDS011;8798;51.938;4.348;2023-11-21T13:13:29;5.67;;;3.47;;
17361;SDS011;8798;51.938;4.348;2023-11-21T13:15:59;7.67;;;3.87;;
17361;SDS011;8798;51.938;4.348;2023-11-21T13:18:35;4.07;;;2.83;;
17361;SDS011;8798;51.938;4.348;2023-11-21T13:21:15;2.97;;;1.80;;
17361;SDS011;8798;51.938;4.348;2023-11-21T13:23:56;4.97;;;2.20;;
17361;SDS011;8798;51.938;4.348;2023-11-21T13:26:40;6.50;;;2.50;;
17361;SDS011;8798;51.938;4.348;2023-11-21T13:29:29;3.33;;;2.50;;
17361;SDS011;8798;51.938;4.348;2023-11-21T13:32:07;6.03;;;3.40;;
17361;SDS011;8798;51.938;4.348;2023-11-21T13:34:55;5.30;;;3.23;;
17361;SDS011;8798;51.938;4.348;2023-11-21T13:37:29;6.67;;;3.23;;
17361;SDS011;8798;51.938;4.348;2023-11-21T13:40:21;4.87;;;3.07;;
17361;SDS011;8798;51.938;4.348;2023-11-21T13:43:22;4.63;;;2.70;;
17361;SDS011;8798;51.938;4.348;2023-11-21T13:46:14;5.00;;;2.50;;
17361;SDS011;8798;51.938;4.348;2023-11-21T13:49:08;4.40;;;2.07;;
17361;SDS011;8798;51.938;4.348;2023-11-21T13:51:44;21.73;;;4.10;;
17361;SDS011;8798;51.938;4.348;2023-11-21T13:54:25;68.93;;;7.67;;
17361;SDS011;8798;51.938;4.348;2023-11-21T13:57:11;5.13;;;3.00;;
17361;SDS011;8798;51.938;4.348;2023-11-21T13:59:59;4.10;;;2.77;;
17361;SDS011;8798;51.938;4.348;2023-11-21T14:02:58;5.37;;;3.20;;
17361;SDS011;8798;51.938;4.348;2023-11-21T14:05:36;5.43;;;3.17;;
17361;SDS011;8798;51.938;4.348;2023-11-21T14:08:08;5.40;;;3.03;;
17361;SDS011;8798;51.938;4.348;2023-11-21T14:10:48;6.97;;;2.93;;
17361;SDS011;8798;51.938;4.348;2023-11-21T14:13:37;5.50;;;3.37;;
17361;SDS011;8798;51.938;4.348;2023-11-21T14:16:14;9.17;;;3.53;;
17361;SDS011;8798;51.938;4.348;2023-11-21T14:19:00;6.53;;;3.50;;
17361;SDS011;8798;51.938;4.348;2023-11-21T14:21:49;5.50;;;3.63;;
17361;SDS011;8798;51.938;4.348;2023-11-21T14:24:27;5.83;;;3.27;;
17361;SDS011;8798;51.938;4.348;2023-11-21T14:27:08;5.57;;;3.47;;
17361;SDS011;8798;51.938;4.348;2023-11-21T14:29:38;5.67;;;3.77;;
17361;SDS011;8798;51.938;4.348;2023-11-21T14:32:13;8.13;;;4.07;;
17361;SDS011;8798;51.938;4.348;2023-11-21T14:35:09;5.40;;;3.33;;
17361;SDS011;8798;51.938;4.348;2023-11-21T14:37:45;6.23;;;3.33;;
17361;SDS011;8798;51.938;4.348;2023-11-21T14:40:21;5.30;;;3.27;;
17361;SDS011;8798;51.938;4.348;2023-11-21T14:43:18;4.67;;;2.80;;
17361;SDS011;8798;51.938;4.348;2023-11-21T14:45:52;9.57;;;4.17;;
17361;SDS011;8798;51.938;4.348;2023-11-21T14:48:35;5.87;;;3.57;;
17361;SDS011;8798;51.938;4.348;2023-11-21T14:51:14;6.00;;;3.70;;
17361;SDS011;8798;51.938;4.348;2023-11-21T14:54:01;5.97;;;3.83;;
17361;SDS011;8798;51.938;4.348;2023-11-21T14:56:44;7.10;;;4.47;;
17361;SDS011;8798;51.938;4.348;2023-11-21T14:59:19;8.67;;;4.93;;
17361;SDS011;8798;51.938;4.348;2023-11-21T15:01:48;9.10;;;5.60;;
17361;SDS011;8798;51.938;4.348;2023-11-21T15:04:32;8.87;;;5.30;;
17361;SDS011;8798;51.938;4.348;2023-11-21T15:07:07;8.33;;;4.70;;
17361;SDS011;8798;51.938;4.348;2023-11-21T15:09:44;9.27;;;5.13;;
17361;SDS011;8798;51.938;4.348;2023-11-21T15:12:18;9.80;;;5.20;;
17361;SDS011;8798;51.938;4.348;2023-11-21T15:14:55;10.47;;;5.27;;
17361;SDS011;8798;51.938;4.348;2023-11-21T15:17:49;8.63;;;5.03;;
17361;SDS011;8798;51.938;4.348;2023-11-21T15:20:31;9.10;;;5.73;;
17361;SDS011;8798;51.938;4.348;2023-11-21T15:23:18;10.63;;;5.80;;
17361;SDS011;8798;51.938;4.348;2023-11-21T15:25:49;9.23;;;4.97;;
17361;SDS011;8798;51.938;4.348;2023-11-21T15:28:30;6.70;;;4.30;;
17361;SDS011;8798;51.938;4.348;2023-11-21T15:31:09;7.20;;;4.77;;
17361;SDS011;8798;51.938;4.348;2023-11-21T15:34:03;7.27;;;4.10;;
17361;SDS011;8798;51.938;4.348;2023-11-21T15:36:39;6.17;;;4.33;;
17361;SDS011;8798;51.938;4.348;2023-11-21T15:39:22;6.37;;;3.73;;
17361;SDS011;8798;51.938;4.348;2023-11-21T15:42:05;7.50;;;4.33;;
17361;SDS011;8798;51.938;4.348;2023-11-21T15:44:49;8.23;;;4.23;;
17361;SDS011;8798;51.938;4.348;2023-11-21T15:47:22;6.97;;;4.10;;
17361;SDS011;8798;51.938;4.348;2023-11-21T15:49:58;6.30;;;3.67;;
17361;SDS011;8798;51.938;4.348;2023-11-21T15:52:44;6.80;;;4.20;;
17361;SDS011;8798;51.938;4.348;2023-11-21T15:55:26;9.03;;;4.53;;
17361;SDS011;8798;51.938;4.348;2023-11-21T15:58:00;7.23;;;3.83;;
17361;SDS011;8798;51.938;4.348;2023-11-21T16:00:44;6.63;;;4.20;;
17361;SDS011;8798;51.938;4.348;2023-11-21T16:03:18;7.53;;;4.40;;
17361;SDS011;8798;51.938;4.348;2023-11-21T16:06:05;7.90;;;4.30;;
17361;SDS011;8798;51.938;4.348;2023-11-21T16:08:49;7.97;;;4.30;;
17361;SDS011;8798;51.938;4.348;2023-11-21T16:11:30;7.10;;;4.30;;
17361;SDS011;8798;51.938;4.348;2023-11-21T16:14:04;7.60;;;4.37;;
17361;SDS011;8798;51.938;4.348;2023-11-21T16:16:40;7.37;;;4.27;;
17361;SDS011;8798;51.938;4.348;2023-11-21T16:19:12;7.07;;;4.20;;
17361;SDS011;8798;51.938;4.348;2023-11-21T16:21:50;7.57;;;4.07;;
17361;SDS011;8798;51.938;4.348;2023-11-21T16:24:31;7.80;;;4.70;;
17361;SDS011;8798;51.938;4.348;2023-11-21T16:27:08;8.00;;;4.47;;
17361;SDS011;8798;51.938;4.348;2023-11-21T16:29:45;7.23;;;4.60;;
17361;SDS011;8798;51.938;4.348;2023-11-21T16:32:18;11.33;;;4.53;;
17361;SDS011;8798;51.938;4.348;2023-11-21T16:34:48;7.87;;;5.10;;
17361;SDS011;8798;51.938;4.348;2023-11-21T16:37:31;7.10;;;4.03;;
17361;SDS011;8798;51.938;4.348;2023-11-21T16:40:15;8.13;;;5.00;;
17361;SDS011;8798;51.938;4.348;2023-11-21T16:43:07;8.83;;;5.07;;
17361;SDS011;8798;51.938;4.348;2023-11-21T16:45:45;7.87;;;4.70;;